createdAt,value
2019-05-13T00:08:21.825Z,68.50
2019-05-13T00:23:29.880Z,68.23
2019-05-13T00:38:36.971Z,68.48
2019-05-13T00:53:44.332Z,68.40
2019-05-13T01:08:53.499Z,68.70
2019-05-13T01:24:00.786Z,68.80
2019-05-13T01:39:09.090Z,68.81
2019-05-13T01:54:16.274Z,68.78
2019-05-13T02:09:24.462Z,68.51
2019-05-13T02:24:34.137Z,68.67
2019-05-13T02:39:42.785Z,68.50
2019-05-13T02:54:52.773Z,68.30
2019-05-13T03:10:03.739Z,68.47
2019-05-13T03:25:08.644Z,68.45
2019-05-13T03:40:15.741Z,68.40
2019-05-13T03:55:23.767Z,68.73
2019-05-13T04:10:33.416Z,68.33
2019-05-13T04:25:44.566Z,68.40
2019-05-13T04:40:52.653Z,68.45
2019-05-13T04:55:58.462Z,68.46
2019-05-13T05:11:35.969Z,68.47
2019-05-13T05:27:12.072Z,68.24
2019-05-13T05:42:21.881Z,68.15
2019-05-13T05:57:31.701Z,68.27
2019-05-13T06:12:42.492Z,68.12
2019-05-13T06:27:51.254Z,67.68
2019-05-13T06:43:01.391Z,67.45
2019-05-13T06:58:11.263Z,67.39
2019-05-13T07:13:17.666Z,67.37
2019-05-13T07:28:28.817Z,66.75
2019-05-13T07:43:36.070Z,66.61
2019-05-13T07:58:48.443Z,66.17
2019-05-13T08:13:55.522Z,65.80
2019-05-13T08:29:05.804Z,66.55
2019-05-13T08:44:12.392Z,65.28
2019-05-13T08:59:22.053Z,65.36
2019-05-13T09:14:28.530Z,65.22
2019-05-13T09:29:37.155Z,64.90
2019-05-13T09:44:44.228Z,66.23
2019-05-13T09:59:52.463Z,67.25
2019-05-13T10:15:01.986Z,67.31
2019-05-13T10:30:11.431Z,66.44
2019-05-13T10:45:18.897Z,65.94
2019-05-13T11:00:48.339Z,64.96
2019-05-13T11:15:58.265Z,63.43
2019-05-13T11:31:04.833Z,62.76
2019-05-13T11:46:12.691Z,61.89
2019-05-13T12:01:22.946Z,61.52
2019-05-13T12:16:30.040Z,60.11
2019-05-13T12:31:36.982Z,57.18
2019-05-13T12:46:49.936Z,57.59
2019-05-13T13:01:52.634Z,55.30
2019-05-13T13:17:04.118Z,50.43
2019-05-13T13:32:08.712Z,52.64
2019-05-13T13:47:15.752Z,55.11
2019-05-13T14:02:25.454Z,54.55
2019-05-13T14:17:31.762Z,53.47
2019-05-13T14:32:41.771Z,53.58
2019-05-13T14:47:50.743Z,51.91
2019-05-13T15:02:57.722Z,51.61
2019-05-13T15:18:04.303Z,55.66
2019-05-13T15:33:11.380Z,55.35
2019-05-13T15:48:18.171Z,55.76
2019-05-13T16:03:26.436Z,56.57
2019-05-13T16:18:33.578Z,57.82
2019-05-13T16:33:41.878Z,58.88
2019-05-13T16:48:50.015Z,58.54
2019-05-13T17:03:57.314Z,59.29
2019-05-13T17:19:04.114Z,60.05
2019-05-13T17:34:12.113Z,60.37
2019-05-13T17:49:19.490Z,52.22
2019-05-13T18:04:26.623Z,54.91
2019-05-13T18:19:34.579Z,51.97
2019-05-13T18:34:41.486Z,55.84
2019-05-13T18:49:50.753Z,57.25
2019-05-13T19:05:01.454Z,57.65
2019-05-13T19:20:11.647Z,58.56
2019-05-13T19:35:19.229Z,58.45
2019-05-13T19:50:26.473Z,59.13
2019-05-13T20:05:34.600Z,58.98
2019-05-13T20:20:41.936Z,60.07
2019-05-13T20:35:49.894Z,60.87
2019-05-13T20:50:56.922Z,61.54
2019-05-13T21:06:04.558Z,61.67
2019-05-13T21:21:11.896Z,62.43
2019-05-13T21:36:21.399Z,63.94
2019-05-13T21:51:28.247Z,64.31
2019-05-13T22:06:35.203Z,64.92
2019-05-13T22:21:42.531Z,64.69
2019-05-13T22:36:51.823Z,64.24
2019-05-13T22:51:58.682Z,64.34
2019-05-13T23:07:05.491Z,64.68
2019-05-13T23:22:13.564Z,64.56
2019-05-13T23:37:21.870Z,64.42
2019-05-13T23:52:28.591Z,64.25
